createdAt,value
2018-09-10T00:01:25.076Z,80.73
2018-09-10T00:04:28.203Z,83.63
2018-09-10T00:07:31.424Z,82.65
2018-09-10T00:10:34.728Z,83.19
2018-09-10T00:13:37.926Z,83.45
2018-09-10T00:16:41.107Z,83.67
2018-09-10T00:19:44.272Z,83.91
2018-09-10T00:22:47.688Z,83.83
2018-09-10T00:25:50.843Z,83.31
2018-09-10T00:28:54.002Z,82.26
2018-09-10T00:31:57.118Z,82.53
2018-09-10T00:35:00.232Z,81.11
2018-09-10T00:38:03.488Z,81.40
2018-09-10T00:41:06.633Z,82.75
2018-09-10T00:44:10.054Z,82.46
2018-09-10T00:47:13.358Z,82.41
2018-09-10T00:50:16.510Z,81.71
2018-09-10T00:53:19.715Z,83.16
2018-09-10T00:56:22.898Z,83.90
2018-09-10T00:59:26.260Z,83.69
2018-09-10T01:02:29.416Z,83.37
2018-09-10T01:05:32.631Z,83.55
2018-09-10T01:08:35.793Z,83.79
2018-09-10T01:11:39.413Z,83.68
2018-09-10T01:14:42.760Z,83.17
2018-09-10T01:17:46.027Z,84.58
2018-09-10T01:20:49.265Z,84.05
2018-09-10T01:23:52.560Z,85.94
2018-09-10T01:26:55.794Z,87.56
2018-09-10T01:29:59.104Z,83.94
2018-09-10T01:33:02.392Z,83.10
2018-09-10T01:36:05.699Z,85.46
2018-09-10T01:39:09.438Z,84.78
2018-09-10T01:42:12.618Z,83.90
2018-09-10T01:45:16.027Z,85.47
2018-09-10T01:48:19.506Z,88.06
2018-09-10T01:51:22.692Z,87.40
2018-09-10T01:54:25.869Z,86.95
2018-09-10T01:57:29.090Z,86.87
2018-09-10T02:00:32.229Z,83.77
2018-09-10T02:03:35.449Z,85.55
2018-09-10T02:06:38.734Z,81.85
2018-09-10T02:09:42.100Z,83.30
2018-09-10T02:12:45.363Z,81.66
2018-09-10T02:15:48.590Z,81.98
2018-09-10T02:18:51.852Z,88.05
2018-09-10T02:21:56.040Z,85.34
2018-09-10T02:24:59.202Z,83.84
2018-09-10T02:28:02.390Z,84.44
2018-09-10T02:31:05.804Z,84.49
2018-09-10T02:34:09.204Z,84.60
2018-09-10T02:37:12.443Z,84.60
2018-09-10T02:40:15.655Z,85.09
2018-09-10T02:43:18.856Z,84.07
2018-09-10T02:46:21.986Z,83.24
2018-09-10T02:49:25.261Z,84.68
2018-09-10T02:52:28.451Z,82.11
2018-09-10T02:55:31.736Z,83.00
2018-09-10T02:58:35.039Z,84.75
2018-09-10T03:01:39.221Z,84.24
2018-09-10T03:04:44.975Z,82.60
2018-09-10T03:07:48.198Z,83.47
2018-09-10T03:10:51.429Z,82.02
2018-09-10T03:13:54.639Z,89.15
2018-09-10T03:16:57.859Z,91.16
2018-09-10T03:20:01.033Z,90.35
2018-09-10T03:23:04.227Z,87.62
2018-09-10T03:26:07.464Z,89.14
2018-09-10T03:29:10.744Z,87.46
2018-09-10T03:32:13.856Z,87.89
2018-09-10T03:35:17.078Z,87.53
2018-09-10T03:38:20.242Z,86.42
2018-09-10T03:41:23.435Z,87.11
2018-09-10T03:44:26.715Z,88.39
2018-09-10T03:47:29.999Z,89.21
2018-09-10T03:50:33.359Z,86.70
2018-09-10T03:53:36.848Z,87.78
2018-09-10T03:56:40.208Z,87.16
2018-09-10T03:59:43.572Z,86.40
2018-09-10T04:02:46.816Z,86.96
2018-09-10T04:05:50.138Z,87.61
2018-09-10T04:08:53.455Z,89.29
2018-09-10T04:12:59.790Z,90.37
2018-09-10T04:16:04.115Z,89.71
2018-09-10T04:19:07.587Z,89.68
2018-09-10T04:22:42.131Z,88.32
2018-09-10T04:25:45.388Z,88.70
2018-09-10T04:28:48.736Z,87.99
2018-09-10T04:31:51.927Z,88.60
2018-09-10T04:34:57.104Z,88.71
2018-09-10T04:38:03.417Z,89.08
2018-09-10T04:41:06.644Z,87.84
2018-09-10T04:44:10.850Z,87.07
2018-09-10T04:47:14.004Z,87.89
2018-09-10T04:50:18.662Z,86.36
2018-09-10T04:53:25.822Z,89.72
2018-09-10T04:56:29.173Z,89.70
2018-09-10T04:59:32.373Z,91.04
2018-09-10T05:02:35.675Z,91.49
2018-09-10T05:05:38.900Z,89.65
2018-09-10T05:08:41.991Z,90.88
2018-09-10T05:11:45.379Z,88.94
2018-09-10T05:14:48.814Z,88.83
2018-09-10T05:17:52.058Z,87.38
2018-09-10T05:20:55.320Z,87.55
2018-09-10T05:23:58.582Z,85.86
2018-09-10T05:27:01.819Z,85.27
2018-09-10T05:30:06.101Z,85.35
2018-09-10T05:33:09.368Z,85.49
2018-09-10T05:36:14.719Z,84.13
2018-09-10T05:39:17.963Z,84.62
2018-09-10T05:42:21.170Z,84.08
2018-09-10T05:45:24.532Z,81.24
2018-09-10T05:48:27.781Z,80.43
2018-09-10T05:54:41.771Z,79.42
2018-09-10T05:57:45.042Z,75.43
2018-09-10T06:00:48.246Z,77.86
2018-09-10T06:03:53.555Z,76.32
2018-09-10T06:11:04.792Z,77.25
2018-09-10T06:14:08.007Z,79.63
2018-09-10T06:17:41.987Z,80.38
2018-09-10T06:20:46.210Z,80.64
2018-09-10T06:23:51.432Z,82.18
2018-09-10T06:26:54.782Z,80.19
2018-09-10T06:29:58.033Z,84.14
2018-09-10T06:33:03.287Z,86.07
2018-09-10T06:36:07.554Z,85.84
2018-09-10T06:39:12.321Z,82.03
2018-09-10T06:42:15.733Z,85.75
2018-09-10T06:45:18.945Z,89.06
2018-09-10T06:48:22.305Z,88.80
2018-09-10T06:51:25.610Z,86.70
2018-09-10T06:54:29.867Z,86.74
2018-09-10T06:57:34.114Z,84.38
2018-09-10T07:00:39.302Z,88.65
2018-09-10T07:03:42.429Z,85.93
2018-09-10T07:06:46.051Z,81.19
2018-09-10T07:09:50.334Z,79.06
2018-09-10T07:12:54.564Z,78.13
2018-09-10T07:15:57.842Z,74.19
2018-09-10T07:19:01.062Z,71.45
2018-09-10T07:22:04.478Z,74.98
2018-09-10T07:25:08.741Z,70.97
2018-09-10T07:28:12.211Z,70.36
2018-09-10T07:31:15.470Z,69.57
2018-09-10T07:34:18.756Z,66.84
2018-09-10T07:37:22.021Z,66.16
2018-09-10T07:40:25.256Z,65.30
2018-09-10T07:43:28.488Z,63.79
2018-09-10T07:46:31.712Z,65.59
2018-09-10T07:49:35.039Z,61.36
2018-09-10T07:52:38.308Z,63.11
2018-09-10T07:55:41.521Z,63.54
2018-09-10T07:58:44.800Z,65.41
2018-09-10T08:01:47.997Z,60.80
2018-09-10T08:04:51.190Z,59.46
2018-09-10T08:07:54.384Z,59.38
2018-09-10T08:10:57.498Z,57.79
2018-09-10T08:14:00.698Z,59.13
2018-09-10T08:17:03.992Z,58.81
2018-09-10T08:20:07.476Z,60.08
2018-09-10T08:23:11.707Z,62.79
2018-09-10T08:26:15.067Z,62.76
2018-09-10T08:29:18.389Z,61.47
2018-09-10T08:32:21.669Z,62.47
2018-09-10T08:35:24.951Z,61.05
2018-09-10T08:38:28.120Z,64.24
2018-09-10T08:41:31.337Z,62.76
2018-09-10T08:44:34.646Z,62.82
2018-09-10T08:47:38.101Z,63.78
2018-09-10T08:50:41.356Z,61.50
2018-09-10T08:53:44.783Z,61.16
2018-09-10T08:56:48.093Z,61.24
2018-09-10T08:59:51.211Z,61.74
2018-09-10T09:02:54.575Z,62.08
2018-09-10T09:05:57.742Z,61.03
2018-09-10T09:09:01.142Z,59.36
2018-09-10T09:12:04.387Z,59.64
2018-09-10T09:15:07.706Z,59.26
2018-09-10T09:18:11.223Z,59.39
2018-09-10T09:21:14.663Z,58.39
2018-09-10T09:24:17.956Z,56.74
2018-09-10T09:27:21.351Z,54.95
2018-09-10T09:30:24.669Z,52.08
2018-09-10T09:33:27.980Z,52.36
2018-09-10T09:36:36.811Z,53.65
2018-09-10T09:39:45.816Z,52.61
2018-09-10T09:42:54.770Z,51.12
2018-09-10T09:46:03.522Z,50.98
2018-09-10T09:49:06.783Z,52.39
2018-09-10T09:52:11.255Z,50.01
2018-09-10T09:55:14.531Z,53.11
2018-09-10T09:58:18.850Z,51.67
2018-09-10T10:01:27.794Z,54.66
2018-09-10T10:04:31.314Z,50.06
2018-09-10T10:07:34.570Z,52.82
2018-09-10T10:10:38.110Z,49.50
2018-09-10T10:13:41.392Z,49.98
2018-09-10T10:16:44.648Z,52.06
2018-09-10T10:19:48.379Z,51.45
2018-09-10T10:22:51.700Z,51.14
2018-09-10T10:25:54.946Z,50.21
2018-09-10T10:28:58.160Z,53.36
2018-09-10T10:32:01.446Z,52.70
2018-09-10T10:35:05.023Z,49.91
2018-09-10T10:38:08.195Z,53.05
2018-09-10T10:41:11.425Z,50.97
2018-09-10T10:44:45.467Z,51.42
2018-09-10T10:47:48.608Z,52.45
2018-09-10T10:50:51.833Z,51.45
2018-09-10T10:53:55.071Z,51.15
2018-09-10T10:56:58.278Z,51.42
2018-09-10T11:00:01.901Z,48.95
2018-09-10T11:03:05.249Z,49.34
2018-09-10T11:06:08.598Z,48.98
2018-09-10T11:09:11.871Z,47.92
2018-09-10T11:12:15.230Z,47.59
2018-09-10T11:15:18.431Z,48.28
2018-09-10T11:18:21.720Z,47.44
2018-09-10T11:21:25.275Z,47.22
2018-09-10T11:24:28.543Z,48.40
2018-09-10T11:27:31.871Z,46.16
2018-09-10T11:30:35.126Z,48.10
2018-09-10T11:33:38.331Z,48.07
2018-09-10T11:36:41.344Z,48.40
2018-09-10T11:39:44.557Z,47.67
2018-09-10T11:42:47.693Z,47.84
2018-09-10T11:45:50.841Z,47.35
2018-09-10T11:48:54.144Z,48.54
2018-09-10T11:51:57.282Z,48.62
2018-09-10T11:55:00.457Z,48.10
2018-09-10T11:58:03.592Z,48.46
2018-09-10T12:01:06.709Z,48.17
2018-09-10T12:04:09.960Z,47.68
2018-09-10T12:07:13.778Z,46.82
2018-09-10T12:10:16.992Z,47.75
2018-09-10T12:13:20.514Z,47.62
2018-09-10T12:16:23.818Z,47.58
2018-09-10T12:19:27.022Z,47.45
2018-09-10T12:22:30.326Z,46.88
2018-09-10T12:25:33.527Z,48.06
2018-09-10T12:28:36.684Z,48.55
2018-09-10T12:31:39.810Z,47.41
2018-09-10T12:35:45.984Z,47.42
2018-09-10T12:38:49.204Z,47.25
2018-09-10T12:41:52.309Z,46.75
2018-09-10T12:44:55.500Z,47.55
2018-09-10T12:47:58.685Z,48.20
2018-09-10T12:51:01.926Z,48.60
2018-09-10T12:54:05.057Z,48.26
2018-09-10T12:57:08.372Z,47.66
2018-09-10T13:00:11.637Z,48.47
2018-09-10T13:03:14.901Z,48.61
2018-09-10T13:06:18.052Z,48.55
2018-09-10T13:09:21.215Z,48.93
2018-09-10T13:12:24.479Z,48.89
2018-09-10T13:15:27.754Z,49.44
2018-09-10T13:18:30.991Z,49.26
2018-09-10T13:21:34.463Z,49.37
2018-09-10T13:24:37.587Z,49.12
2018-09-10T13:27:40.724Z,48.33
2018-09-10T13:30:43.804Z,49.19
2018-09-10T13:33:47.000Z,49.34
2018-09-10T13:36:50.131Z,48.80
2018-09-10T13:39:53.441Z,48.87
2018-09-10T13:42:56.617Z,49.08
2018-09-10T13:45:59.700Z,50.50
2018-09-10T13:49:02.965Z,50.24
2018-09-10T13:52:06.160Z,49.64
2018-09-10T13:55:09.220Z,50.48
2018-09-10T13:58:43.461Z,49.61
2018-09-10T14:01:46.725Z,50.72
2018-09-10T14:04:49.944Z,49.34
2018-09-10T14:07:53.118Z,49.77
2018-09-10T14:10:56.261Z,49.60
2018-09-10T14:13:59.636Z,48.81
2018-09-10T14:17:02.791Z,48.23
2018-09-10T14:20:06.000Z,48.01
2018-09-10T14:23:10.058Z,49.29
2018-09-10T14:26:13.302Z,48.71
2018-09-10T14:29:16.791Z,48.84
2018-09-10T14:32:20.346Z,47.84
2018-09-10T14:35:23.661Z,46.50
2018-09-10T14:38:26.789Z,47.72
2018-09-10T14:41:29.927Z,47.16
2018-09-10T14:44:33.181Z,50.73
2018-09-10T14:47:36.235Z,51.50
2018-09-10T14:50:39.309Z,52.36
2018-09-10T14:53:42.598Z,51.86
2018-09-10T14:56:45.796Z,52.26
2018-09-10T14:59:48.901Z,52.11
2018-09-10T15:02:52.226Z,53.08
2018-09-10T15:05:55.622Z,52.54
2018-09-10T15:08:58.857Z,53.75
2018-09-10T15:12:01.987Z,53.89
2018-09-10T15:15:05.162Z,53.66
2018-09-10T15:18:08.338Z,54.96
2018-09-10T15:21:11.543Z,55.67
2018-09-10T15:24:14.713Z,54.76
2018-09-10T15:27:17.944Z,55.85
2018-09-10T15:30:21.082Z,55.92
2018-09-10T15:33:24.341Z,56.34
2018-09-10T15:36:27.512Z,56.52
2018-09-10T15:39:30.721Z,56.79
2018-09-10T15:42:33.905Z,56.00
2018-09-10T15:45:39.134Z,56.78
2018-09-10T15:48:42.226Z,56.91
2018-09-10T15:51:45.491Z,57.37
2018-09-10T15:54:48.703Z,57.24
2018-09-10T15:57:51.905Z,57.97
2018-09-10T16:00:55.096Z,58.02
2018-09-10T16:03:58.303Z,58.31
2018-09-10T16:07:01.457Z,58.22
2018-09-10T16:10:04.901Z,57.52
2018-09-10T16:13:08.129Z,56.64
2018-09-10T16:16:12.216Z,57.89
2018-09-10T16:19:15.392Z,58.12
2018-09-10T16:22:19.022Z,57.51
2018-09-10T16:25:22.394Z,56.47
2018-09-10T16:28:26.508Z,56.17
2018-09-10T16:31:29.990Z,56.34
2018-09-10T16:34:33.251Z,56.75
2018-09-10T16:37:36.809Z,57.41
2018-09-10T16:40:40.006Z,57.66
2018-09-10T16:43:43.174Z,58.19
2018-09-10T16:46:46.437Z,58.50
2018-09-10T16:49:49.941Z,59.16
2018-09-10T16:52:53.222Z,58.88
2018-09-10T16:55:57.338Z,59.36
2018-09-10T16:59:01.057Z,59.49
2018-09-10T17:02:04.473Z,60.14
2018-09-10T17:05:07.709Z,59.58
2018-09-10T17:08:10.852Z,60.50
2018-09-10T17:11:14.127Z,60.71
2018-09-10T17:14:17.534Z,60.53
2018-09-10T17:17:20.817Z,60.57
2018-09-10T17:20:24.021Z,60.61
2018-09-10T17:23:27.285Z,60.97
2018-09-10T17:26:30.703Z,61.77
2018-09-10T17:29:33.757Z,61.95
2018-09-10T17:32:38.317Z,62.38
2018-09-10T17:35:41.450Z,62.72
2018-09-10T17:38:46.780Z,62.99
2018-09-10T17:41:52.174Z,63.44
2018-09-10T17:44:55.366Z,63.61
2018-09-10T17:47:58.686Z,64.41
2018-09-10T17:51:03.271Z,64.33
2018-09-10T17:54:06.698Z,64.05
2018-09-10T17:57:09.765Z,63.95
2018-09-10T18:00:15.026Z,65.68
2018-09-10T18:03:18.249Z,64.67
2018-09-10T18:06:22.066Z,65.24
2018-09-10T18:09:25.133Z,65.35
2018-09-10T18:12:30.837Z,66.11
2018-09-10T18:15:34.033Z,66.10
2018-09-10T18:18:37.213Z,66.10
2018-09-10T18:21:40.373Z,65.56
2018-09-10T18:24:46.716Z,66.07
2018-09-10T18:27:50.304Z,67.18
2018-09-10T18:30:54.449Z,66.07
2018-09-10T18:33:57.582Z,65.41
2018-09-10T18:37:00.707Z,65.35
2018-09-10T18:40:04.094Z,64.87
2018-09-10T18:43:07.470Z,64.40
2018-09-10T18:49:46.023Z,65.06
2018-09-10T18:52:49.274Z,65.61
2018-09-10T18:55:53.823Z,65.03
2018-09-10T18:58:59.937Z,64.99
2018-09-10T19:02:03.185Z,66.76
2018-09-10T19:05:06.551Z,66.58
2018-09-10T19:08:09.842Z,70.16
2018-09-10T19:11:13.093Z,70.93
2018-09-10T19:14:16.368Z,73.47
2018-09-10T19:17:19.767Z,75.16
2018-09-10T19:20:22.915Z,74.67
2018-09-10T19:23:26.089Z,75.08
2018-09-10T19:26:29.351Z,75.22
2018-09-10T19:29:32.598Z,73.62
2018-09-10T19:32:35.733Z,72.63
2018-09-10T19:35:39.019Z,73.49
2018-09-10T19:38:42.310Z,73.60
2018-09-10T19:41:45.614Z,73.72
2018-09-10T19:44:48.931Z,74.23
2018-09-10T19:47:52.039Z,74.57
2018-09-10T19:50:55.347Z,75.27
2018-09-10T19:53:58.598Z,74.76
2018-09-10T19:57:01.902Z,74.60
2018-09-10T20:00:05.291Z,74.36
2018-09-10T20:03:08.499Z,75.76
2018-09-10T20:06:11.800Z,76.02
2018-09-10T20:09:15.053Z,76.57
2018-09-10T20:12:18.289Z,75.15
2018-09-10T20:15:21.627Z,75.23
2018-09-10T20:18:24.754Z,74.59
2018-09-10T20:21:27.940Z,76.08
2018-09-10T20:24:31.304Z,76.57
2018-09-10T20:27:34.448Z,77.62
2018-09-10T20:30:37.715Z,77.05
2018-09-10T20:34:12.726Z,77.56
2018-09-10T20:37:15.889Z,77.84
2018-09-10T20:40:19.090Z,79.58
2018-09-10T20:43:22.295Z,80.35
2018-09-10T20:46:25.483Z,79.45
2018-09-10T20:49:29.084Z,78.24
2018-09-10T20:52:32.385Z,78.31
2018-09-10T20:55:35.673Z,78.30
2018-09-10T20:58:38.799Z,77.84
2018-09-10T21:01:42.050Z,78.91
2018-09-10T21:04:45.259Z,78.32
2018-09-10T21:07:48.360Z,80.46
2018-09-10T21:10:51.545Z,79.34
2018-09-10T21:13:54.945Z,80.20
2018-09-10T21:16:58.174Z,79.33
2018-09-10T21:20:01.545Z,81.34
2018-09-10T21:23:04.957Z,81.37
2018-09-10T21:26:08.219Z,80.90
2018-09-10T21:29:11.388Z,80.22
2018-09-10T21:32:14.549Z,80.84
2018-09-10T21:35:17.764Z,81.19
2018-09-10T21:38:20.991Z,79.85
2018-09-10T21:41:24.220Z,78.83
2018-09-10T21:44:27.365Z,79.21
2018-09-10T21:47:31.614Z,80.29
2018-09-10T21:50:34.833Z,80.89
2018-09-10T21:53:39.200Z,81.00
2018-09-10T21:56:42.343Z,82.59
2018-09-10T21:59:45.482Z,81.77
2018-09-10T22:02:48.553Z,81.89
2018-09-10T22:05:51.982Z,83.57
2018-09-10T22:08:55.207Z,83.39
2018-09-10T22:12:01.322Z,80.83
2018-09-10T22:15:04.620Z,82.59
2018-09-10T22:18:07.766Z,82.51
2018-09-10T22:21:10.859Z,84.31
2018-09-10T22:24:14.949Z,84.68
2018-09-10T22:27:18.108Z,83.91
2018-09-10T22:30:21.298Z,83.04
2018-09-10T22:33:24.404Z,83.54
2018-09-10T22:36:28.693Z,83.21
2018-09-10T22:39:31.840Z,83.50
2018-09-10T22:42:41.547Z,83.59
2018-09-10T22:45:44.672Z,84.34
2018-09-10T22:48:47.902Z,84.53
2018-09-10T22:51:52.749Z,83.82
2018-09-10T22:54:55.955Z,84.63
2018-09-10T22:58:02.399Z,82.62
2018-09-10T23:01:05.542Z,81.54
2018-09-10T23:04:09.849Z,82.56
2018-09-10T23:07:14.077Z,81.48
2018-09-10T23:10:17.266Z,82.07
2018-09-10T23:13:20.393Z,82.21
2018-09-10T23:16:23.560Z,83.33
2018-09-10T23:19:26.824Z,83.22
2018-09-10T23:22:29.918Z,83.99
2018-09-10T23:25:33.973Z,84.40
2018-09-10T23:28:39.276Z,84.05
2018-09-10T23:31:42.545Z,85.06
2018-09-10T23:34:45.718Z,85.38
2018-09-10T23:37:48.897Z,85.05
2018-09-10T23:40:52.024Z,84.99
2018-09-10T23:43:55.182Z,84.67
2018-09-10T23:46:58.366Z,84.97
2018-09-10T23:50:01.611Z,86.03
2018-09-10T23:53:08.207Z,86.52
2018-09-10T23:56:13.470Z,85.69
2018-09-10T23:59:18.881Z,85.34
